sensor_id;sensor_type;location;lat;lon;timestamp;pressure;altitude;pressure_sealevel;temperature;humidity
69836;BME280;57132;51.972;4.450;2023-04-03T00:00:52;103011.16;;;2.36;100.00
69836;BME280;57132;51.972;4.450;2023-04-03T00:03:18;103019.94;;;2.35;100.00
69836;BME280;57132;51.972;4.450;2023-04-03T00:05:45;103012.94;;;2.31;100.00
69836;BME280;57132;51.972;4.450;2023-04-03T00:08:11;103019.94;;;2.33;100.00
69836;BME280;57132;51.972;4.450;2023-04-03T00:10:36;103022.56;;;2.29;100.00
69836;BME280;57132;51.972;4.450;2023-04-03T00:13:05;103016.44;;;2.27;100.00
69836;BME280;57132;51.972;4.450;2023-04-03T00:15:31;103018.19;;;2.21;100.00
69836;BME280;57132;51.972;4.450;2023-04-03T00:17:57;103018.19;;;2.17;100.00
69836;BME280;57132;51.972;4.450;2023-04-03T00:20:22;103024.34;;;2.11;100.00
69836;BME280;57132;51.972;4.450;2023-04-03T00:22:48;103024.34;;;2.11;100.00
69836;BME280;57132;51.972;4.450;2023-04-03T00:25:13;103031.38;;;2.11;100.00
69836;BME280;57132;51.972;4.450;2023-04-03T00:27:39;103024.38;;;2.07;100.00
69836;BME280;57132;51.972;4.450;2023-04-03T00:30:07;103021.72;;;2.05;100.00
69836;BME280;57132;51.972;4.450;2023-04-03T00:32:33;103024.38;;;2.02;100.00
69836;BME280;57132;51.972;4.450;2023-04-03T00:34:58;103018.22;;;2.00;100.00
69836;BME280;57132;51.972;4.450;2023-04-03T00:37:24;103016.47;;;1.99;100.00
69836;BME280;57132;51.972;4.450;2023-04-03T00:39:49;103013.81;;;1.91;100.00
69836;BME280;57132;51.972;4.450;2023-04-03T00:42:15;103026.97;;;1.90;100.00
69836;BME280;57132;51.972;4.450;2023-04-03T00:47:08;103028.72;;;1.94;100.00
69836;BME280;57132;51.972;4.450;2023-04-03T00:49:36;103025.22;;;1.89;100.00
69836;BME280;57132;51.972;4.450;2023-04-03T00:52:02;103025.25;;;1.83;100.00
69836;BME280;57132;51.972;4.450;2023-04-03T00:54:28;103024.34;;;1.79;100.00
69836;BME280;57132;51.972;4.450;2023-04-03T00:56:55;103024.34;;;1.73;100.00
69836;BME280;57132;51.972;4.450;2023-04-03T00:59:26;103025.22;;;1.72;100.00
69836;BME280;57132;51.972;4.450;2023-04-03T01:01:56;103026.97;;;1.70;100.00
69836;BME280;57132;51.972;4.450;2023-04-03T01:04:30;103025.22;;;1.69;100.00
69836;BME280;57132;51.972;4.450;2023-04-03T01:06:59;103032.22;;;1.65;100.00
69836;BME280;57132;51.972;4.450;2023-04-03T01:09:26;103030.47;;;1.60;100.00
69836;BME280;57132;51.972;4.450;2023-04-03T01:11:51;103032.22;;;1.59;100.00
69836;BME280;57132;51.972;4.450;2023-04-03T01:14:17;103036.59;;;1.62;100.00
69836;BME280;57132;51.972;4.450;2023-04-03T01:16:42;103034.84;;;1.58;100.00
69836;BME280;57132;51.972;4.450;2023-04-03T01:19:12;103040.09;;;1.50;100.00
69836;BME280;57132;51.972;4.450;2023-04-03T01:24:29;103037.44;;;1.42;100.00
69836;BME280;57132;51.972;4.450;2023-04-03T01:26:57;103040.06;;;1.42;100.00
69836;BME280;57132;51.972;4.450;2023-04-03T01:29:22;103044.47;;;1.45;100.00
69836;BME280;57132;51.972;4.450;2023-04-03T01:31:57;103044.47;;;1.43;100.00
69836;BME280;57132;51.972;4.450;2023-04-03T01:34:23;103038.31;;;1.40;100.00
69836;BME280;57132;51.972;4.450;2023-04-03T01:36:51;103047.09;;;1.42;100.00
69836;BME280;57132;51.972;4.450;2023-04-03T01:39:17;103038.28;;;1.38;100.00
69836;BME280;57132;51.972;4.450;2023-04-03T01:41:42;103040.91;;;1.34;100.00
69836;BME280;57132;51.972;4.450;2023-04-03T01:44:10;103042.66;;;1.30;100.00
69836;BME280;57132;51.972;4.450;2023-04-03T01:46:35;103037.38;;;1.26;100.00
69836;BME280;57132;51.972;4.450;2023-04-03T01:49:02;103040.03;;;1.19;100.00
69836;BME280;57132;51.972;4.450;2023-04-03T01:51:28;103038.22;;;1.12;100.00
69836;BME280;57132;51.972;4.450;2023-04-03T01:53:53;103036.44;;;1.05;100.00
69836;BME280;57132;51.972;4.450;2023-04-03T01:56:19;103039.03;;;0.96;100.00
69836;BME280;57132;51.972;4.450;2023-04-03T01:58:45;103046.00;;;0.85;100.00
69836;BME280;57132;51.972;4.450;2023-04-03T02:01:10;103040.72;;;0.80;100.00
69836;BME280;57132;51.972;4.450;2023-04-03T02:03:35;103042.44;;;0.78;100.00
69836;BME280;57132;51.972;4.450;2023-04-03T02:06:01;103046.84;;;0.81;100.00
69836;BME280;57132;51.972;4.450;2023-04-03T02:08:27;103056.50;;;0.82;100.00
69836;BME280;57132;51.972;4.450;2023-04-03T02:10:52;103050.34;;;0.77;100.00
69836;BME280;57132;51.972;4.450;2023-04-03T02:13:18;103048.56;;;0.74;100.00
69836;BME280;57132;51.972;4.450;2023-04-03T02:15:43;103052.06;;;0.68;100.00
69836;BME280;57132;51.972;4.450;2023-04-03T02:18:10;103059.03;;;0.65;100.00
69836;BME280;57132;51.972;4.450;2023-04-03T02:20:36;103062.53;;;0.65;100.00
69836;BME280;57132;51.972;4.450;2023-04-03T02:23:02;103066.03;;;0.64;100.00
69836;BME280;57132;51.972;4.450;2023-04-03T02:25:28;103065.16;;;0.61;100.00
69836;BME280;57132;51.972;4.450;2023-04-03T02:27:53;103060.75;;;0.60;100.00
69836;BME280;57132;51.972;4.450;2023-04-03T02:30:19;103066.00;;;0.63;100.00
69836;BME280;57132;51.972;4.450;2023-04-03T02:32:44;103069.53;;;0.62;100.00
69836;BME280;57132;51.972;4.450;2023-04-03T02:35:10;103066.91;;;0.62;100.00
69836;BME280;57132;51.972;4.450;2023-04-03T02:37:36;103070.34;;;0.55;100.00
69836;BME280;57132;51.972;4.450;2023-04-03T02:40:02;103072.97;;;0.53;100.00
69836;BME280;57132;51.972;4.450;2023-04-03T02:42:28;103067.72;;;0.52;100.00
69836;BME280;57132;51.972;4.450;2023-04-03T02:44:53;103070.34;;;0.52;100.00
69836;BME280;57132;51.972;4.450;2023-04-03T02:47:18;103060.69;;;0.49;100.00
69836;BME280;57132;51.972;4.450;2023-04-03T02:49:44;103068.53;;;0.46;100.00
69836;BME280;57132;51.972;4.450;2023-04-03T02:52:11;103073.75;;;0.43;100.00
69836;BME280;57132;51.972;4.450;2023-04-03T02:54:36;103076.38;;;0.38;100.00
69836;BME280;57132;51.972;4.450;2023-04-03T02:57:02;103082.50;;;0.39;100.00
69836;BME280;57132;51.972;4.450;2023-04-03T02:59:27;103077.25;;;0.42;100.00
69836;BME280;57132;51.972;4.450;2023-04-03T03:01:53;103063.25;;;0.41;100.00
69836;BME280;57132;51.972;4.450;2023-04-03T03:04:18;103068.47;;;0.38;100.00
69836;BME280;57132;51.972;4.450;2023-04-03T03:06:44;103073.72;;;0.38;100.00
69836;BME280;57132;51.972;4.450;2023-04-03T03:09:09;103075.47;;;0.33;100.00
69836;BME280;57132;51.972;4.450;2023-04-03T03:11:35;103076.28;;;0.26;100.00
69836;BME280;57132;51.972;4.450;2023-04-03T03:14:00;103074.53;;;0.25;100.00
69836;BME280;57132;51.972;4.450;2023-04-03T03:16:25;103078.88;;;0.23;100.00
69836;BME280;57132;51.972;4.450;2023-04-03T03:18:51;103080.63;;;0.22;100.00
69836;BME280;57132;51.972;4.450;2023-04-03T03:21:16;103087.63;;;0.23;100.00
69836;BME280;57132;51.972;4.450;2023-04-03T03:23:41;103081.50;;;0.23;100.00
69836;BME280;57132;51.972;4.450;2023-04-03T03:26:09;103082.38;;;0.20;100.00
69836;BME280;57132;51.972;4.450;2023-04-03T03:28:36;103077.09;;;0.17;100.00
69836;BME280;57132;51.972;4.450;2023-04-03T03:31:02;103077.91;;;0.15;100.00
69836;BME280;57132;51.972;4.450;2023-04-03T03:33:28;103079.69;;;0.14;100.00
69836;BME280;57132;51.972;4.450;2023-04-03T03:35:54;103078.81;;;0.14;100.00
69836;BME280;57132;51.972;4.450;2023-04-03T03:38:19;103084.91;;;0.11;100.00
69836;BME280;57132;51.972;4.450;2023-04-03T03:40:47;103094.53;;;0.09;100.00
69836;BME280;57132;51.972;4.450;2023-04-03T03:43:14;103086.59;;;0.05;100.00
69836;BME280;57132;51.972;4.450;2023-04-03T03:45:39;103090.03;;;-0.03;100.00
69836;BME280;57132;51.972;4.450;2023-04-03T03:48:05;103095.25;;;-0.06;100.00
69836;BME280;57132;51.972;4.450;2023-04-03T03:50:30;103088.25;;;-0.07;100.00
69836;BME280;57132;51.972;4.450;2023-04-03T03:52:55;103092.63;;;-0.04;100.00
69836;BME280;57132;51.972;4.450;2023-04-03T03:55:21;103087.38;;;-0.07;100.00
69836;BME280;57132;51.972;4.450;2023-04-03T03:57:46;103083.84;;;-0.09;100.00
69836;BME280;57132;51.972;4.450;2023-04-03T04:00:12;103085.56;;;-0.14;100.00
69836;BME280;57132;51.972;4.450;2023-04-03T04:02:38;103093.38;;;-0.17;100.00
69836;BME280;57132;51.972;4.450;2023-04-03T04:05:03;103088.13;;;-0.19;100.00
69836;BME280;57132;51.972;4.450;2023-04-03T04:07:29;103088.09;;;-0.20;100.00
69836;BME280;57132;51.972;4.450;2023-04-03T04:09:54;103086.31;;;-0.26;100.00
69836;BME280;57132;51.972;4.450;2023-04-03T04:12:20;103090.69;;;-0.25;100.00
69836;BME280;57132;51.972;4.450;2023-04-03T04:14:46;103088.94;;;-0.26;100.00
69836;BME280;57132;51.972;4.450;2023-04-03T04:17:12;103094.13;;;-0.29;100.00
69836;BME280;57132;51.972;4.450;2023-04-03T04:19:38;103094.13;;;-0.31;100.00
69836;BME280;57132;51.972;4.450;2023-04-03T04:22:03;103090.63;;;-0.30;100.00
69836;BME280;57132;51.972;4.450;2023-04-03T04:24:28;103095.88;;;-0.31;100.00
69836;BME280;57132;51.972;4.450;2023-04-03T04:26:54;103104.59;;;-0.32;100.00
69836;BME280;57132;51.972;4.450;2023-04-03T04:29:19;103099.34;;;-0.32;100.00
69836;BME280;57132;51.972;4.450;2023-04-03T04:31:45;103099.38;;;-0.31;100.00
69836;BME280;57132;51.972;4.450;2023-04-03T04:34:10;103101.97;;;-0.32;100.00
69836;BME280;57132;51.972;4.450;2023-04-03T04:36:35;103106.34;;;-0.33;100.00
69836;BME280;57132;51.972;4.450;2023-04-03T04:39:01;103104.59;;;-0.34;100.00
69836;BME280;57132;51.972;4.450;2023-04-03T04:41:26;103105.44;;;-0.36;100.00
69836;BME280;57132;51.972;4.450;2023-04-03T04:43:51;103108.03;;;-0.38;100.00
69836;BME280;57132;51.972;4.450;2023-04-03T04:46:17;103105.44;;;-0.36;100.00
69836;BME280;57132;51.972;4.450;2023-04-03T04:48:43;103110.66;;;-0.39;100.00
69836;BME280;57132;51.972;4.450;2023-04-03T04:51:09;103111.50;;;-0.43;100.00
69836;BME280;57132;51.972;4.450;2023-04-03T04:53:34;103116.69;;;-0.46;100.00
69836;BME280;57132;51.972;4.450;2023-04-03T04:56:00;103118.41;;;-0.48;100.00
69836;BME280;57132;51.972;4.450;2023-04-03T04:58:25;103122.81;;;-0.47;100.00
69836;BME280;57132;51.972;4.450;2023-04-03T05:01:05;103113.13;;;-0.53;100.00
69836;BME280;57132;51.972;4.450;2023-04-03T05:03:33;103119.28;;;-0.50;100.00
69836;BME280;57132;51.972;4.450;2023-04-03T05:05:58;103118.38;;;-0.52;100.00
69836;BME280;57132;51.972;4.450;2023-04-03T05:08:24;103117.44;;;-0.57;100.00
69836;BME280;57132;51.972;4.450;2023-04-03T05:10:50;103115.69;;;-0.56;100.00
69836;BME280;57132;51.972;4.450;2023-04-03T05:13:15;103112.25;;;-0.54;100.00
69836;BME280;57132;51.972;4.450;2023-04-03T05:15:41;103111.38;;;-0.53;100.00
69836;BME280;57132;51.972;4.450;2023-04-03T05:18:07;103107.88;;;-0.55;100.00
69836;BME280;57132;51.972;4.450;2023-04-03T05:20:33;103120.06;;;-0.58;100.00
69836;BME280;57132;51.972;4.450;2023-04-03T05:23:00;103122.69;;;-0.57;100.00
69836;BME280;57132;51.972;4.450;2023-04-03T05:25:25;103126.19;;;-0.56;100.00
69836;BME280;57132;51.972;4.450;2023-04-03T05:27:51;103124.56;;;-0.46;100.00
69836;BME280;57132;51.972;4.450;2023-04-03T05:30:17;103122.00;;;-0.40;100.00
69836;BME280;57132;51.972;4.450;2023-04-03T05:32:42;103121.13;;;-0.41;100.00
69836;BME280;57132;51.972;4.450;2023-04-03T05:35:08;103128.16;;;-0.38;100.00
69836;BME280;57132;51.972;4.450;2023-04-03T05:37:33;103135.16;;;-0.37;100.00
69836;BME280;57132;51.972;4.450;2023-04-03T05:39:59;103127.28;;;-0.36;100.00
69836;BME280;57132;51.972;4.450;2023-04-03T05:42:24;103130.03;;;-0.27;100.00
69836;BME280;57132;51.972;4.450;2023-04-03T05:44:50;103138.84;;;-0.21;100.00
69836;BME280;57132;51.972;4.450;2023-04-03T05:47:16;103119.63;;;-0.17;100.00
69836;BME280;57132;51.972;4.450;2023-04-03T05:49:41;103135.47;;;-0.11;100.00
69836;BME280;57132;51.972;4.450;2023-04-03T05:52:20;103128.50;;;-0.08;100.00
69836;BME280;57132;51.972;4.450;2023-04-03T05:54:46;103129.41;;;-0.03;100.00
69836;BME280;57132;51.972;4.450;2023-04-03T05:57:13;103134.75;;;0.05;100.00
69836;BME280;57132;51.972;4.450;2023-04-03T05:59:39;103135.69;;;0.13;100.00
69836;BME280;57132;51.972;4.450;2023-04-03T06:02:04;103146.25;;;0.19;100.00
69836;BME280;57132;51.972;4.450;2023-04-03T06:04:30;103140.19;;;0.27;100.00
69836;BME280;57132;51.972;4.450;2023-04-03T06:06:56;103142.91;;;0.37;100.00
69836;BME280;57132;51.972;4.450;2023-04-03T06:09:27;103150.03;;;0.49;100.00
69836;BME280;57132;51.972;4.450;2023-04-03T06:11:53;103147.41;;;0.55;100.00
69836;BME280;57132;51.972;4.450;2023-04-03T06:14:19;103153.66;;;0.65;100.00
69836;BME280;57132;51.972;4.450;2023-04-03T06:16:44;103160.72;;;0.72;100.00
69836;BME280;57132;51.972;4.450;2023-04-03T06:19:11;103160.81;;;0.84;100.00
69836;BME280;57132;51.972;4.450;2023-04-03T06:21:37;103159.97;;;0.93;100.00
69836;BME280;57132;51.972;4.450;2023-04-03T06:24:04;103167.94;;;1.05;100.00
69836;BME280;57132;51.972;4.450;2023-04-03T06:26:30;103160.09;;;1.14;100.00
69836;BME280;57132;51.972;4.450;2023-04-03T06:28:55;103161.91;;;1.25;100.00
69836;BME280;57132;51.972;4.450;2023-04-03T06:31:21;103168.97;;;1.32;100.00
69836;BME280;57132;51.972;4.450;2023-04-03T06:33:46;103169.06;;;1.47;100.00
69836;BME280;57132;51.972;4.450;2023-04-03T06:36:12;103172.59;;;1.61;100.00
69836;BME280;57132;51.972;4.450;2023-04-03T06:38:38;103172.66;;;1.70;100.00
69836;BME280;57132;51.972;4.450;2023-04-03T06:41:03;103175.31;;;1.80;100.00
69836;BME280;57132;51.972;4.450;2023-04-03T06:43:29;103167.44;;;1.92;100.00
69836;BME280;57132;51.972;4.450;2023-04-03T06:45:56;103168.34;;;2.02;100.00
69836;BME280;57132;51.972;4.450;2023-04-03T06:48:22;103170.13;;;2.16;100.00
69836;BME280;57132;51.972;4.450;2023-04-03T06:50:47;103165.75;;;2.23;100.00
69836;BME280;57132;51.972;4.450;2023-04-03T06:53:12;103173.69;;;2.38;100.00
69836;BME280;57132;51.972;4.450;2023-04-03T06:55:38;103175.41;;;2.53;100.00
69836;BME280;57132;51.972;4.450;2023-04-03T06:58:04;103175.44;;;2.65;100.00
69836;BME280;57132;51.972;4.450;2023-04-03T07:00:30;103176.31;;;2.74;100.00
69836;BME280;57132;51.972;4.450;2023-04-03T07:02:56;103180.69;;;2.90;100.00
69836;BME280;57132;51.972;4.450;2023-04-03T07:05:23;103189.47;;;3.01;100.00
69836;BME280;57132;51.972;4.450;2023-04-03T07:07:48;103192.97;;;3.17;100.00
69836;BME280;57132;51.972;4.450;2023-04-03T07:10:15;103192.91;;;3.31;100.00
69836;BME280;57132;51.972;4.450;2023-04-03T07:12:41;103192.84;;;3.51;100.00
69836;BME280;57132;51.972;4.450;2023-04-03T07:15:07;103201.59;;;3.68;100.00
69836;BME280;57132;51.972;4.450;2023-04-03T07:17:33;103205.06;;;3.82;100.00
69836;BME280;57132;51.972;4.450;2023-04-03T07:19:59;103197.84;;;4.10;100.00
69836;BME280;57132;51.972;4.450;2023-04-03T07:22:24;103199.41;;;4.39;100.00
69836;BME280;57132;51.972;4.450;2023-04-03T07:24:49;103199.91;;;4.91;100.00
69836;BME280;57132;51.972;4.450;2023-04-03T07:27:15;103201.13;;;5.43;100.00
69836;BME280;57132;51.972;4.450;2023-04-03T07:29:43;103207.00;;;6.34;100.00
69836;BME280;57132;51.972;4.450;2023-04-03T07:32:09;103206.84;;;7.46;100.00
69836;BME280;57132;51.972;4.450;2023-04-03T07:34:35;103205.00;;;8.69;88.97
69836;BME280;57132;51.972;4.450;2023-04-03T07:37:01;103212.47;;;10.15;78.16
69836;BME280;57132;51.972;4.450;2023-04-03T07:39:27;103219.97;;;11.36;63.71
69836;BME280;57132;51.972;4.450;2023-04-03T07:41:53;103221.22;;;13.29;53.97
69836;BME280;57132;51.972;4.450;2023-04-03T07:44:20;103225.50;;;14.48;49.01
69836;BME280;57132;51.972;4.450;2023-04-03T07:46:46;103227.19;;;15.05;45.33
69836;BME280;57132;51.972;4.450;2023-04-03T07:49:11;103218.72;;;14.95;43.66
69836;BME280;57132;51.972;4.450;2023-04-03T07:51:37;103229.03;;;15.55;43.04
69836;BME280;57132;51.972;4.450;2023-04-03T07:54:02;103232.47;;;15.41;42.63
69836;BME280;57132;51.972;4.450;2023-04-03T07:56:29;103239.72;;;15.39;42.41
69836;BME280;57132;51.972;4.450;2023-04-03T07:58:54;103233.13;;;15.95;40.93
69836;BME280;57132;51.972;4.450;2023-04-03T08:01:19;103234.94;;;15.61;40.70
69836;BME280;57132;51.972;4.450;2023-04-03T08:03:45;103229.25;;;16.16;39.90
69836;BME280;57132;51.972;4.450;2023-04-03T08:06:11;103237.16;;;16.35;39.56
69836;BME280;57132;51.972;4.450;2023-04-03T08:08:38;103238.63;;;15.43;41.64
69836;BME280;57132;51.972;4.450;2023-04-03T08:11:03;103239.44;;;14.93;41.32
69836;BME280;57132;51.972;4.450;2023-04-03T08:13:31;103239.03;;;15.86;40.11
69836;BME280;57132;51.972;4.450;2023-04-03T08:15:56;103250.19;;;16.11;39.04
69836;BME280;57132;51.972;4.450;2023-04-03T08:18:25;103249.31;;;16.74;38.39
69836;BME280;57132;51.972;4.450;2023-04-03T08:20:51;103256.47;;;16.12;38.52
69836;BME280;57132;51.972;4.450;2023-04-03T08:23:18;103249.03;;;16.15;38.35
69836;BME280;57132;51.972;4.450;2023-04-03T08:25:44;103256.78;;;16.69;37.16
69836;BME280;57132;51.972;4.450;2023-04-03T08:28:10;103257.56;;;16.71;37.49
69836;BME280;57132;51.972;4.450;2023-04-03T08:30:39;103257.31;;;17.06;36.56
69836;BME280;57132;51.972;4.450;2023-04-03T08:33:04;103259.50;;;17.15;37.22
69836;BME280;57132;51.972;4.450;2023-04-03T08:35:33;103256.03;;;16.35;36.36
69836;BME280;57132;51.972;4.450;2023-04-03T08:37:59;103254.06;;;15.57;39.21
69836;BME280;57132;51.972;4.450;2023-04-03T08:40:26;103252.50;;;15.18;40.40
69836;BME280;57132;51.972;4.450;2023-04-03T08:43:08;103251.22;;;15.08;39.78
69836;BME280;57132;51.972;4.450;2023-04-03T08:45:49;103257.47;;;14.73;39.07
69836;BME280;57132;51.972;4.450;2023-04-03T08:48:19;103246.94;;;14.31;42.33
69836;BME280;57132;51.972;4.450;2023-04-03T08:50:49;103255.78;;;14.33;40.92
69836;BME280;57132;51.972;4.450;2023-04-03T08:53:39;103250.25;;;15.43;39.38
69836;BME280;57132;51.972;4.450;2023-04-03T08:56:05;103249.66;;;16.84;36.51
69836;BME280;57132;51.972;4.450;2023-04-03T08:58:41;103247.41;;;17.65;34.24
69836;BME280;57132;51.972;4.450;2023-04-03T09:01:40;103252.44;;;17.71;33.88
69836;BME280;57132;51.972;4.450;2023-04-03T09:04:14;103260.16;;;17.63;32.38
69836;BME280;57132;51.972;4.450;2023-04-03T09:06:43;103248.41;;;17.19;31.83
69836;BME280;57132;51.972;4.450;2023-04-03T09:09:37;103253.34;;;17.27;32.50
69836;BME280;57132;51.972;4.450;2023-04-03T09:12:24;103250.84;;;19.32;30.67
69836;BME280;57132;51.972;4.450;2023-04-03T09:17:46;103262.34;;;19.49;27.77
69836;BME280;57132;51.972;4.450;2023-04-03T09:26:03;103246.31;;;18.66;28.92
69836;BME280;57132;51.972;4.450;2023-04-03T09:28:35;103253.03;;;18.46;28.30
69836;BME280;57132;51.972;4.450;2023-04-03T09:31:16;103262.53;;;18.39;28.37
69836;BME280;57132;51.972;4.450;2023-04-03T09:33:43;103257.75;;;18.15;26.83
69836;BME280;57132;51.972;4.450;2023-04-03T09:36:10;103263.78;;;19.02;26.48
69836;BME280;57132;51.972;4.450;2023-04-03T09:38:36;103250.94;;;19.31;27.70
69836;BME280;57132;51.972;4.450;2023-04-03T09:41:04;103240.28;;;18.48;29.24
69836;BME280;57132;51.972;4.450;2023-04-03T09:43:31;103249.06;;;18.52;27.76
69836;BME280;57132;51.972;4.450;2023-04-03T09:46:29;103233.09;;;18.20;25.03
69836;BME280;57132;51.972;4.450;2023-04-03T09:49:00;103226.97;;;17.47;27.78
69836;BME280;57132;51.972;4.450;2023-04-03T09:51:27;103232.91;;;17.23;30.32
69836;BME280;57132;51.972;4.450;2023-04-03T09:53:55;103220.09;;;16.51;29.99
69836;BME280;57132;51.972;4.450;2023-04-03T09:56:29;103208.94;;;16.72;29.48
69836;BME280;57132;51.972;4.450;2023-04-03T10:06:58;103210.59;;;18.34;26.87
69836;BME280;57132;51.972;4.450;2023-04-03T10:09:26;103214.41;;;17.31;28.72
69836;BME280;57132;51.972;4.450;2023-04-03T10:12:02;103210.84;;;18.02;27.94
69836;BME280;57132;51.972;4.450;2023-04-03T10:14:34;103211.81;;;18.42;27.50
69836;BME280;57132;51.972;4.450;2023-04-03T10:17:05;103209.69;;;17.63;27.00
69836;BME280;57132;51.972;4.450;2023-04-03T10:19:57;103211.03;;;17.42;27.74
69836;BME280;57132;51.972;4.450;2023-04-03T10:30:46;103191.09;;;16.70;27.91
69836;BME280;57132;51.972;4.450;2023-04-03T10:36:05;103195.03;;;16.80;26.82
69836;BME280;57132;51.972;4.450;2023-04-03T10:51:51;103175.25;;;17.67;28.24
69836;BME280;57132;51.972;4.450;2023-04-03T10:57:02;103186.78;;;16.98;27.39
69836;BME280;57132;51.972;4.450;2023-04-03T10:59:41;103176.97;;;16.35;28.05
69836;BME280;57132;51.972;4.450;2023-04-03T11:02:31;103186.44;;;14.78;29.29
69836;BME280;57132;51.972;4.450;2023-04-03T11:05:15;103184.69;;;13.46;29.82
69836;BME280;57132;51.972;4.450;2023-04-03T11:07:47;103174.53;;;12.93;32.22
69836;BME280;57132;51.972;4.450;2023-04-03T11:10:26;103175.78;;;12.42;31.79
69836;BME280;57132;51.972;4.450;2023-04-03T11:13:01;103176.34;;;12.50;32.89
69836;BME280;57132;51.972;4.450;2023-04-03T11:15:32;103177.16;;;13.54;32.21
69836;BME280;57132;51.972;4.450;2023-04-03T11:18:15;103177.78;;;16.21;28.24
69836;BME280;57132;51.972;4.450;2023-04-03T11:20:47;103180.59;;;17.83;24.64
69836;BME280;57132;51.972;4.450;2023-04-03T11:23:36;103171.69;;;17.95;24.55
69836;BME280;57132;51.972;4.450;2023-04-03T11:26:12;103171.72;;;18.49;23.95
69836;BME280;57132;51.972;4.450;2023-04-03T11:28:40;103166.91;;;18.13;23.61
69836;BME280;57132;51.972;4.450;2023-04-03T11:36:49;103157.19;;;17.10;24.63
69836;BME280;57132;51.972;4.450;2023-04-03T11:39:30;103154.25;;;17.43;23.25
69836;BME280;57132;51.972;4.450;2023-04-03T11:42:26;103151.09;;;16.62;24.06
69836;BME280;57132;51.972;4.450;2023-04-03T11:47:51;103144.81;;;15.53;25.77
69836;BME280;57132;51.972;4.450;2023-04-03T12:29:27;103105.91;;;12.68;27.62
69836;BME280;57132;51.972;4.450;2023-04-03T12:32:19;103107.38;;;11.91;27.81
69836;BME280;57132;51.972;4.450;2023-04-03T12:35:05;103095.59;;;11.26;29.35
69836;BME280;57132;51.972;4.450;2023-04-03T12:40:30;103083.34;;;11.89;31.58
69836;BME280;57132;51.972;4.450;2023-04-03T12:45:56;103077.38;;;13.65;29.22
69836;BME280;57132;51.972;4.450;2023-04-03T12:48:28;103075.50;;;12.69;29.18
69836;BME280;57132;51.972;4.450;2023-04-03T12:50:54;103068.00;;;12.15;30.18
69836;BME280;57132;51.972;4.450;2023-04-03T12:53:24;103067.97;;;11.94;31.22
69836;BME280;57132;51.972;4.450;2023-04-03T12:55:55;103073.34;;;11.49;30.49
69836;BME280;57132;51.972;4.450;2023-04-03T12:58:26;103079.81;;;10.95;31.60
69836;BME280;57132;51.972;4.450;2023-04-03T13:01:09;103070.84;;;11.21;32.69
69836;BME280;57132;51.972;4.450;2023-04-03T13:03:44;103068.47;;;11.37;30.47
69836;BME280;57132;51.972;4.450;2023-04-03T13:06:32;103062.69;;;11.93;31.40
69836;BME280;57132;51.972;4.450;2023-04-03T13:09:00;103059.53;;;11.60;31.97
69836;BME280;57132;51.972;4.450;2023-04-03T13:11:30;103061.06;;;12.31;32.94
69836;BME280;57132;51.972;4.450;2023-04-03T13:13:59;103057.59;;;12.09;30.63
69836;BME280;57132;51.972;4.450;2023-04-03T13:16:25;103055.22;;;11.55;32.09
69836;BME280;57132;51.972;4.450;2023-04-03T13:18:52;103065.16;;;11.30;34.57
69836;BME280;57132;51.972;4.450;2023-04-03T13:21:25;103058.97;;;11.04;34.56
69836;BME280;57132;51.972;4.450;2023-04-03T13:23:54;103051.25;;;11.20;34.40
69836;BME280;57132;51.972;4.450;2023-04-03T13:26:23;103063.03;;;11.38;32.40
69836;BME280;57132;51.972;4.450;2023-04-03T13:28:49;103054.34;;;12.00;34.14
69836;BME280;57132;51.972;4.450;2023-04-03T13:31:26;103057.63;;;12.07;32.08
69836;BME280;57132;51.972;4.450;2023-04-03T13:34:01;103062.63;;;11.94;34.02
69836;BME280;57132;51.972;4.450;2023-04-03T13:36:36;103056.81;;;11.83;33.79
69836;BME280;57132;51.972;4.450;2023-04-03T13:39:04;103063.81;;;11.42;35.47
69836;BME280;57132;51.972;4.450;2023-04-03T13:41:38;103058.94;;;11.06;35.85
69836;BME280;57132;51.972;4.450;2023-04-03T13:46:55;103048.78;;;10.42;35.16
69836;BME280;57132;51.972;4.450;2023-04-03T13:49:30;103052.41;;;10.40;35.41
69836;BME280;57132;51.972;4.450;2023-04-03T13:51:56;103048.09;;;10.36;36.78
69836;BME280;57132;51.972;4.450;2023-04-03T13:54:39;103038.72;;;10.49;36.08
69836;BME280;57132;51.972;4.450;2023-04-03T13:57:14;103038.09;;;10.42;35.27
69836;BME280;57132;51.972;4.450;2023-04-03T13:59:41;103042.22;;;10.51;36.93
69836;BME280;57132;51.972;4.450;2023-04-03T14:04:48;103026.69;;;10.62;37.13
69836;BME280;57132;51.972;4.450;2023-04-03T14:07:15;103014.25;;;10.36;35.28
69836;BME280;57132;51.972;4.450;2023-04-03T14:09:45;103025.41;;;10.22;36.44
69836;BME280;57132;51.972;4.450;2023-04-03T14:12:27;103023.78;;;10.17;36.73
69836;BME280;57132;51.972;4.450;2023-04-03T14:14:54;103017.66;;;10.15;37.06
69836;BME280;57132;51.972;4.450;2023-04-03T14:17:24;103011.47;;;10.13;37.25
69836;BME280;57132;51.972;4.450;2023-04-03T14:19:50;102998.13;;;10.13;35.90
69836;BME280;57132;51.972;4.450;2023-04-03T14:22:29;103004.34;;;10.13;36.56
69836;BME280;57132;51.972;4.450;2023-04-03T14:24:56;103005.25;;;10.14;37.74
69836;BME280;57132;51.972;4.450;2023-04-03T14:27:40;102994.44;;;10.17;37.17
69836;BME280;57132;51.972;4.450;2023-04-03T14:30:13;103001.75;;;10.38;39.55
69836;BME280;57132;51.972;4.450;2023-04-03T14:32:39;102993.78;;;10.37;37.33
69836;BME280;57132;51.972;4.450;2023-04-03T14:35:05;102986.59;;;10.12;36.82
69836;BME280;57132;51.972;4.450;2023-04-03T14:37:31;102992.19;;;10.04;37.54
69836;BME280;57132;51.972;4.450;2023-04-03T14:39:58;102987.97;;;9.97;36.68
69836;BME280;57132;51.972;4.450;2023-04-03T14:42:33;102989.84;;;9.95;39.53